createdAt,value
2018-12-07T00:01:53.795Z,12.80
2018-12-07T00:12:34.947Z,13.00
2018-12-07T00:17:38.159Z,13.00
2018-12-07T00:22:41.370Z,12.90
2018-12-07T00:27:44.574Z,12.90
2018-12-07T00:32:47.778Z,13.10
2018-12-07T00:37:50.978Z,12.90
2018-12-07T00:42:54.182Z,13.00
2018-12-07T00:47:58.453Z,12.80
2018-12-07T00:53:01.702Z,13.20
2018-12-07T00:58:05.078Z,13.00
2018-12-07T01:03:09.226Z,13.10
2018-12-07T01:08:12.696Z,13.00
2018-12-07T01:13:15.874Z,12.80
2018-12-07T01:18:19.162Z,12.80
2018-12-07T01:23:22.406Z,12.80
2018-12-07T01:28:25.662Z,13.00
2018-12-07T01:33:28.957Z,13.00
2018-12-07T01:38:32.195Z,12.90
2018-12-07T01:43:35.407Z,12.80
2018-12-07T01:48:38.615Z,13.00
2018-12-07T01:53:41.910Z,13.00
2018-12-07T01:58:45.134Z,13.20
2018-12-07T02:03:48.337Z,13.20
2018-12-07T02:08:51.550Z,12.90
2018-12-07T02:13:54.846Z,13.00
2018-12-07T02:18:58.130Z,13.10
2018-12-07T02:24:01.467Z,13.20
2018-12-07T02:29:04.715Z,13.20
2018-12-07T02:34:07.954Z,13.20
2018-12-07T02:39:11.199Z,13.20
2018-12-07T02:44:14.850Z,13.20
2018-12-07T02:49:18.093Z,13.20
2018-12-07T02:54:21.373Z,13.30
2018-12-07T02:59:24.555Z,13.20
2018-12-07T03:04:27.901Z,13.20
2018-12-07T03:09:31.130Z,13.00
2018-12-07T03:14:34.314Z,13.20
2018-12-07T03:19:37.498Z,13.30
2018-12-07T03:24:40.704Z,13.10
2018-12-07T03:29:43.982Z,13.30
2018-12-07T03:34:47.222Z,13.40
2018-12-07T03:39:50.402Z,13.40
2018-12-07T03:44:54.152Z,13.10
2018-12-07T03:49:57.340Z,13.30
2018-12-07T03:55:00.527Z,13.30
2018-12-07T04:00:04.300Z,13.20
2018-12-07T04:05:07.647Z,13.00
2018-12-07T04:10:10.952Z,13.30
2018-12-07T04:15:14.297Z,13.20
2018-12-07T04:20:17.586Z,13.10
2018-12-07T04:25:20.856Z,13.30
2018-12-07T04:30:27.251Z,13.10
2018-12-07T04:35:30.511Z,13.30
2018-12-07T04:40:33.770Z,13.30
2018-12-07T04:45:36.934Z,13.00
2018-12-07T04:50:40.119Z,13.00
2018-12-07T04:55:43.375Z,13.40
2018-12-07T05:00:46.563Z,13.00
2018-12-07T05:05:50.152Z,13.00
2018-12-07T05:10:53.352Z,13.20
2018-12-07T05:15:57.661Z,13.30
2018-12-07T05:21:00.855Z,13.40
2018-12-07T05:26:04.673Z,13.30
2018-12-07T05:31:07.871Z,13.30
2018-12-07T05:36:11.075Z,13.10
2018-12-07T05:41:14.256Z,13.30
2018-12-07T05:46:17.526Z,13.10
2018-12-07T05:51:20.883Z,13.30
2018-12-07T05:56:24.154Z,13.20
2018-12-07T06:01:28.358Z,13.40
2018-12-07T06:06:31.533Z,12.90
2018-12-07T06:11:35.248Z,13.30
2018-12-07T06:16:38.599Z,13.30
2018-12-07T06:21:44.086Z,13.30
2018-12-07T06:26:51.962Z,13.30
2018-12-07T06:31:59.756Z,13.20
2018-12-07T06:37:04.763Z,13.40
2018-12-07T06:42:08.050Z,13.30
2018-12-07T06:47:11.240Z,13.30
2018-12-07T06:52:14.432Z,13.20
2018-12-07T06:57:17.623Z,13.30
2018-12-07T07:02:20.879Z,13.30
2018-12-07T07:07:24.102Z,13.40
2018-12-07T07:12:29.164Z,13.20
2018-12-07T07:17:33.075Z,13.00
2018-12-07T07:22:36.322Z,13.40
2018-12-07T07:27:39.546Z,13.30
2018-12-07T07:32:42.771Z,13.10
2018-12-07T07:37:45.998Z,13.30
2018-12-07T07:42:49.231Z,13.00
2018-12-07T07:47:52.463Z,12.90
2018-12-07T07:52:55.691Z,13.30
2018-12-07T07:57:58.895Z,13.30
2018-12-07T08:03:02.421Z,13.30
2018-12-07T08:08:05.952Z,13.20
2018-12-07T08:13:09.307Z,13.30
2018-12-07T08:18:13.210Z,13.10
2018-12-07T08:23:16.451Z,13.30
2018-12-07T08:28:19.716Z,13.20
2018-12-07T08:33:22.955Z,13.30
2018-12-07T08:38:26.198Z,13.30
2018-12-07T08:43:29.439Z,13.20
2018-12-07T08:48:32.691Z,13.10
2018-12-07T08:53:35.923Z,13.40
2018-12-07T08:58:39.154Z,13.20
2018-12-07T09:03:42.714Z,13.20
2018-12-07T09:08:45.895Z,13.30
2018-12-07T09:13:50.906Z,13.30
2018-12-07T09:18:54.266Z,13.30
2018-12-07T09:23:57.649Z,13.30
2018-12-07T09:29:00.907Z,13.30
2018-12-07T09:34:04.525Z,13.30
2018-12-07T09:39:09.478Z,13.30
2018-12-07T09:44:12.668Z,13.30
2018-12-07T09:49:15.850Z,13.10
2018-12-07T09:54:19.035Z,13.30
2018-12-07T09:59:22.244Z,13.20
2018-12-07T10:04:25.458Z,13.40
2018-12-07T10:09:28.642Z,13.40
2018-12-07T10:14:31.851Z,13.30
2018-12-07T10:19:35.051Z,13.40
2018-12-07T10:24:38.244Z,13.30
2018-12-07T10:29:41.441Z,13.30
2018-12-07T10:34:45.295Z,13.30
2018-12-07T10:39:48.535Z,13.30
2018-12-07T10:44:51.755Z,13.20
2018-12-07T10:49:54.979Z,13.30
2018-12-07T10:54:58.221Z,13.40
2018-12-07T11:00:01.574Z,13.40
2018-12-07T11:05:10.522Z,13.30
2018-12-07T11:10:19.102Z,13.40
2018-12-07T11:15:27.907Z,13.30
2018-12-07T11:20:36.615Z,13.40
2018-12-07T11:25:45.306Z,13.40
2018-12-07T11:30:54.014Z,13.30
2018-12-07T11:35:57.277Z,13.50
2018-12-07T11:41:00.465Z,13.30
2018-12-07T11:46:03.703Z,13.40
2018-12-07T11:51:07.102Z,13.40
2018-12-07T11:56:10.337Z,13.40
2018-12-07T12:01:13.705Z,13.40
2018-12-07T12:06:16.936Z,13.30
2018-12-07T12:11:20.214Z,13.30
2018-12-07T12:16:23.387Z,13.30
2018-12-07T12:21:26.692Z,13.40
2018-12-07T12:26:29.984Z,13.60
2018-12-07T12:31:33.268Z,13.60
2018-12-07T12:36:36.439Z,13.40
2018-12-07T12:41:46.577Z,13.40
2018-12-07T12:46:44.859Z,13.20
2018-12-07T12:51:48.047Z,13.70
2018-12-07T12:56:51.438Z,13.60
2018-12-07T13:01:54.656Z,13.70
2018-12-07T13:06:57.918Z,13.70
2018-12-07T13:12:01.139Z,13.50
2018-12-07T13:17:04.371Z,13.50
2018-12-07T13:22:07.614Z,13.70
2018-12-07T13:27:12.678Z,13.70
2018-12-07T13:32:16.087Z,13.70
2018-12-07T13:37:19.410Z,13.60
2018-12-07T13:42:22.794Z,13.40
2018-12-07T13:47:26.231Z,13.70
2018-12-07T13:52:29.712Z,13.70
2018-12-07T13:57:33.147Z,13.50
2018-12-07T14:02:36.826Z,13.60
2018-12-07T14:07:40.152Z,13.60
2018-12-07T14:12:43.496Z,13.70
2018-12-07T14:17:46.923Z,13.80
2018-12-07T14:22:50.494Z,13.70
2018-12-07T14:27:53.910Z,13.70
2018-12-07T14:32:57.568Z,13.70
2018-12-07T14:38:01.177Z,13.70
2018-12-07T14:43:04.661Z,13.70
2018-12-07T14:48:08.158Z,13.90
2018-12-07T14:53:11.576Z,13.80
2018-12-07T14:58:15.239Z,13.80
2018-12-07T15:03:18.700Z,13.70
2018-12-07T15:08:22.061Z,13.70
2018-12-07T15:13:25.290Z,13.50
2018-12-07T15:18:28.943Z,13.80
2018-12-07T15:23:32.207Z,13.70
2018-12-07T15:28:35.489Z,13.70
2018-12-07T15:33:39.074Z,13.40
2018-12-07T15:38:42.366Z,13.70
2018-12-07T15:43:45.729Z,13.60
2018-12-07T15:48:49.735Z,13.70
2018-12-07T15:53:53.187Z,13.70
2018-12-07T15:58:56.647Z,13.70
2018-12-07T16:03:59.889Z,13.80
2018-12-07T16:09:05.434Z,13.80
2018-12-07T16:14:09.024Z,13.40
2018-12-07T16:19:12.365Z,13.60
2018-12-07T16:24:15.798Z,13.80
2018-12-07T16:29:19.109Z,13.70
2018-12-07T16:34:22.587Z,13.60
2018-12-07T16:39:26.031Z,13.70
2018-12-07T16:44:29.494Z,13.70
2018-12-07T16:49:32.863Z,13.60
2018-12-07T16:54:38.036Z,13.80
2018-12-07T16:59:41.848Z,13.60
2018-12-07T17:04:45.480Z,13.60
2018-12-07T17:09:48.873Z,13.70
2018-12-07T17:14:52.219Z,13.40
2018-12-07T17:19:55.702Z,13.40
2018-12-07T17:24:59.064Z,13.30
2018-12-07T17:30:02.500Z,13.40
2018-12-07T17:35:05.983Z,13.50
2018-12-07T17:40:09.521Z,14.40
2018-12-07T17:45:13.057Z,14.50
2018-12-07T17:50:16.282Z,14.40
2018-12-07T17:55:19.545Z,13.70
2018-12-07T18:00:23.441Z,13.60
2018-12-07T18:05:26.922Z,13.70
2018-12-07T18:10:30.310Z,13.70
2018-12-07T18:15:34.489Z,13.70
2018-12-07T18:20:38.205Z,13.70
2018-12-07T18:25:41.824Z,13.50
2018-12-07T18:30:49.615Z,13.40
2018-12-07T18:35:53.317Z,13.40
2018-12-07T18:40:56.745Z,13.30
2018-12-07T18:46:00.189Z,13.40
2018-12-07T18:51:03.617Z,13.30
2018-12-07T18:56:07.065Z,13.40
2018-12-07T19:01:10.616Z,13.40
2018-12-07T19:06:15.167Z,13.40
2018-12-07T19:11:19.654Z,13.40
2018-12-07T19:16:23.259Z,13.40
2018-12-07T19:21:27.261Z,13.30
2018-12-07T19:26:30.907Z,13.40
2018-12-07T19:31:34.277Z,13.20
2018-12-07T19:36:37.693Z,13.20
2018-12-07T19:41:41.293Z,13.20
2018-12-07T19:46:44.847Z,13.10
2018-12-07T19:51:48.435Z,13.30
2018-12-07T19:56:51.898Z,13.30
2018-12-07T20:01:55.528Z,13.10
2018-12-07T20:06:59.073Z,13.10
2018-12-07T20:12:02.606Z,13.00
2018-12-07T20:17:06.149Z,13.00
2018-12-07T20:22:09.709Z,13.00
2018-12-07T20:27:13.286Z,13.00
2018-12-07T20:32:17.003Z,13.00
2018-12-07T20:37:20.691Z,12.80
2018-12-07T20:42:24.216Z,12.80
2018-12-07T20:47:28.609Z,12.80
2018-12-07T20:52:31.919Z,13.00
2018-12-07T20:57:35.258Z,12.90
2018-12-07T21:02:38.631Z,12.60
2018-12-07T21:07:58.794Z,12.70
2018-12-07T21:13:19.670Z,12.50
2018-12-07T21:18:22.958Z,12.60
2018-12-07T21:23:26.266Z,12.60
2018-12-07T21:28:29.618Z,12.60
2018-12-07T21:34:41.948Z,12.50
2018-12-07T21:39:50.969Z,12.50
2018-12-07T21:44:54.479Z,12.50
2018-12-07T21:50:07.323Z,12.40
2018-12-07T21:55:10.705Z,12.00
2018-12-07T22:00:14.489Z,12.20
2018-12-07T22:05:17.905Z,12.30
2018-12-07T22:10:21.146Z,11.90
2018-12-07T22:15:24.346Z,11.90
2018-12-07T22:20:27.551Z,12.40
2018-12-07T22:25:31.180Z,11.90
2018-12-07T22:30:34.604Z,12.00
2018-12-07T22:35:38.090Z,12.20
2018-12-07T22:40:41.608Z,12.20
2018-12-07T22:45:45.271Z,12.00
2018-12-07T22:50:48.523Z,12.30
2018-12-07T22:55:51.717Z,12.00
2018-12-07T23:00:56.051Z,12.10
2018-12-07T23:05:59.234Z,12.00
2018-12-07T23:11:02.510Z,11.90
2018-12-07T23:16:05.854Z,11.90
2018-12-07T23:21:09.059Z,11.90
2018-12-07T23:26:12.351Z,12.20
2018-12-07T23:31:15.557Z,12.20
2018-12-07T23:36:18.894Z,12.10
2018-12-07T23:41:22.175Z,12.00
2018-12-07T23:46:25.367Z,11.50
2018-12-07T23:51:28.586Z,11.90
2018-12-07T23:56:31.861Z,11.90
